sensor_id;sensor_type;location;lat;lon;timestamp;P1;durP1;ratioP1;P2;durP2;ratioP2
75682;SDS011;64295;44.772;39.872;2023-12-20T00:00:59;2.47;;;1.73;;
75682;SDS011;64295;44.772;39.872;2023-12-20T00:04:31;0.25;;;0.25;;
75682;SDS011;64295;44.772;39.872;2023-12-20T00:08:14;3.00;;;0.52;;
75682;SDS011;64295;44.772;39.872;2023-12-20T00:10:58;0.20;;;0.20;;
75682;SDS011;64295;44.772;39.872;2023-12-20T00:13:32;0.40;;;0.40;;
75682;SDS011;64295;44.772;39.872;2023-12-20T00:15:58;0.52;;;0.52;;
75682;SDS011;64295;44.772;39.872;2023-12-20T00:18:25;0.40;;;0.40;;
75682;SDS011;64295;44.772;39.872;2023-12-20T00:20:51;1.35;;;0.68;;
75682;SDS011;64295;44.772;39.872;2023-12-20T00:23:17;2.42;;;2.33;;
75682;SDS011;64295;44.772;39.872;2023-12-20T00:25:42;0.10;;;0.10;;
75682;SDS011;64295;44.772;39.872;2023-12-20T00:28:08;0.57;;;0.57;;
75682;SDS011;64295;44.772;39.872;2023-12-20T00:30:34;0.20;;;0.20;;
75682;SDS011;64295;44.772;39.872;2023-12-20T00:33:01;0.20;;;0.20;;
75682;SDS011;64295;44.772;39.872;2023-12-20T00:35:27;1.52;;;1.25;;
75682;SDS011;64295;44.772;39.872;2023-12-20T00:37:53;0.55;;;0.55;;
75682;SDS011;64295;44.772;39.872;2023-12-20T00:40:19;0.00;;;0.00;;
75682;SDS011;64295;44.772;39.872;2023-12-20T00:42:46;1.83;;;1.02;;
75682;SDS011;64295;44.772;39.872;2023-12-20T00:45:12;2.00;;;1.75;;
75682;SDS011;64295;44.772;39.872;2023-12-20T00:47:39;0.60;;;0.60;;
75682;SDS011;64295;44.772;39.872;2023-12-20T00:50:06;0.00;;;0.00;;
75682;SDS011;64295;44.772;39.872;2023-12-20T00:52:32;5.35;;;0.93;;
75682;SDS011;64295;44.772;39.872;2023-12-20T00:54:58;0.20;;;0.20;;
75682;SDS011;64295;44.772;39.872;2023-12-20T00:57:25;5.15;;;1.65;;
75682;SDS011;64295;44.772;39.872;2023-12-20T00:59:50;0.22;;;0.22;;
75682;SDS011;64295;44.772;39.872;2023-12-20T01:02:16;0.35;;;0.35;;
75682;SDS011;64295;44.772;39.872;2023-12-20T01:04:42;1.02;;;1.02;;
75682;SDS011;64295;44.772;39.872;2023-12-20T01:07:08;0.00;;;0.00;;
75682;SDS011;64295;44.772;39.872;2023-12-20T01:09:34;0.20;;;0.20;;
75682;SDS011;64295;44.772;39.872;2023-12-20T01:12:00;1.75;;;1.65;;
75682;SDS011;64295;44.772;39.872;2023-12-20T01:14:26;1.00;;;0.90;;
75682;SDS011;64295;44.772;39.872;2023-12-20T01:16:52;0.77;;;0.77;;
75682;SDS011;64295;44.772;39.872;2023-12-20T01:19:18;1.30;;;1.13;;
75682;SDS011;64295;44.772;39.872;2023-12-20T01:21:44;0.10;;;0.10;;
75682;SDS011;64295;44.772;39.872;2023-12-20T01:24:10;1.08;;;1.08;;
75682;SDS011;64295;44.772;39.872;2023-12-20T01:26:36;1.05;;;1.05;;
75682;SDS011;64295;44.772;39.872;2023-12-20T01:29:01;2.72;;;1.40;;
75682;SDS011;64295;44.772;39.872;2023-12-20T01:31:27;1.35;;;1.27;;
75682;SDS011;64295;44.772;39.872;2023-12-20T01:33:53;0.15;;;0.15;;
75682;SDS011;64295;44.772;39.872;2023-12-20T01:36:19;0.57;;;0.57;;
75682;SDS011;64295;44.772;39.872;2023-12-20T01:38:50;0.20;;;0.20;;
75682;SDS011;64295;44.772;39.872;2023-12-20T01:41:16;0.00;;;0.00;;
75682;SDS011;64295;44.772;39.872;2023-12-20T01:43:42;0.73;;;0.65;;
75682;SDS011;64295;44.772;39.872;2023-12-20T01:46:08;1.13;;;0.95;;
75682;SDS011;64295;44.772;39.872;2023-12-20T01:48:34;0.00;;;0.00;;
75682;SDS011;64295;44.772;39.872;2023-12-20T01:51:00;0.00;;;0.00;;
75682;SDS011;64295;44.772;39.872;2023-12-20T01:53:28;0.95;;;0.95;;
75682;SDS011;64295;44.772;39.872;2023-12-20T01:55:55;0.63;;;0.50;;
75682;SDS011;64295;44.772;39.872;2023-12-20T01:58:23;1.40;;;1.13;;
75682;SDS011;64295;44.772;39.872;2023-12-20T02:00:51;0.08;;;0.08;;
75682;SDS011;64295;44.772;39.872;2023-12-20T02:03:17;0.20;;;0.20;;
75682;SDS011;64295;44.772;39.872;2023-12-20T02:05:44;0.10;;;0.10;;
75682;SDS011;64295;44.772;39.872;2023-12-20T02:08:11;0.20;;;0.20;;
75682;SDS011;64295;44.772;39.872;2023-12-20T02:10:37;0.00;;;0.00;;
75682;SDS011;64295;44.772;39.872;2023-12-20T02:13:03;1.25;;;0.75;;
75682;SDS011;64295;44.772;39.872;2023-12-20T02:15:29;0.28;;;0.28;;
75682;SDS011;64295;44.772;39.872;2023-12-20T02:17:55;0.52;;;0.52;;
75682;SDS011;64295;44.772;39.872;2023-12-20T02:20:22;0.68;;;0.68;;
75682;SDS011;64295;44.772;39.872;2023-12-20T02:22:48;0.05;;;0.05;;
75682;SDS011;64295;44.772;39.872;2023-12-20T02:25:13;2.20;;;0.75;;
75682;SDS011;64295;44.772;39.872;2023-12-20T02:27:40;0.22;;;0.22;;
75682;SDS011;64295;44.772;39.872;2023-12-20T02:30:09;2.28;;;0.47;;
75682;SDS011;64295;44.772;39.872;2023-12-20T02:32:35;2.05;;;1.95;;
75682;SDS011;64295;44.772;39.872;2023-12-20T02:35:01;0.25;;;0.25;;
75682;SDS011;64295;44.772;39.872;2023-12-20T02:37:27;0.43;;;0.43;;
75682;SDS011;64295;44.772;39.872;2023-12-20T02:39:53;0.00;;;0.00;;
75682;SDS011;64295;44.772;39.872;2023-12-20T02:42:19;0.00;;;0.00;;
75682;SDS011;64295;44.772;39.872;2023-12-20T02:44:45;1.67;;;1.58;;
75682;SDS011;64295;44.772;39.872;2023-12-20T02:47:11;0.95;;;0.10;;
75682;SDS011;64295;44.772;39.872;2023-12-20T02:49:37;0.05;;;0.05;;
75682;SDS011;64295;44.772;39.872;2023-12-20T02:52:03;0.10;;;0.10;;
75682;SDS011;64295;44.772;39.872;2023-12-20T02:54:29;0.00;;;0.00;;
75682;SDS011;64295;44.772;39.872;2023-12-20T02:57:16;1.38;;;1.38;;
75682;SDS011;64295;44.772;39.872;2023-12-20T02:59:42;1.33;;;1.08;;
75682;SDS011;64295;44.772;39.872;2023-12-20T03:02:08;1.55;;;0.68;;
75682;SDS011;64295;44.772;39.872;2023-12-20T03:04:34;0.57;;;0.57;;
75682;SDS011;64295;44.772;39.872;2023-12-20T03:07:00;0.10;;;0.10;;
75682;SDS011;64295;44.772;39.872;2023-12-20T03:09:26;0.30;;;0.20;;
75682;SDS011;64295;44.772;39.872;2023-12-20T03:11:52;1.35;;;0.73;;
75682;SDS011;64295;44.772;39.872;2023-12-20T03:14:27;3.08;;;1.70;;
75682;SDS011;64295;44.772;39.872;2023-12-20T03:20:14;2.78;;;1.23;;
75682;SDS011;64295;44.772;39.872;2023-12-20T03:22:42;0.10;;;0.10;;
75682;SDS011;64295;44.772;39.872;2023-12-20T03:25:08;0.57;;;0.57;;
75682;SDS011;64295;44.772;39.872;2023-12-20T03:27:36;0.98;;;0.50;;
75682;SDS011;64295;44.772;39.872;2023-12-20T03:30:04;0.50;;;0.50;;
75682;SDS011;64295;44.772;39.872;2023-12-20T03:32:30;6.75;;;2.92;;
75682;SDS011;64295;44.772;39.872;2023-12-20T03:34:56;4.50;;;1.15;;
75682;SDS011;64295;44.772;39.872;2023-12-20T03:37:22;0.65;;;0.65;;
75682;SDS011;64295;44.772;39.872;2023-12-20T03:39:48;0.25;;;0.25;;
75682;SDS011;64295;44.772;39.872;2023-12-20T03:42:14;0.30;;;0.30;;
75682;SDS011;64295;44.772;39.872;2023-12-20T03:44:40;0.25;;;0.25;;
75682;SDS011;64295;44.772;39.872;2023-12-20T03:47:07;0.00;;;0.00;;
75682;SDS011;64295;44.772;39.872;2023-12-20T03:49:33;0.73;;;0.52;;
75682;SDS011;64295;44.772;39.872;2023-12-20T03:52:02;0.43;;;0.43;;
75682;SDS011;64295;44.772;39.872;2023-12-20T03:54:28;0.00;;;0.00;;
75682;SDS011;64295;44.772;39.872;2023-12-20T03:56:54;0.00;;;0.00;;
75682;SDS011;64295;44.772;39.872;2023-12-20T03:59:20;0.10;;;0.10;;
75682;SDS011;64295;44.772;39.872;2023-12-20T04:01:46;0.00;;;0.00;;
75682;SDS011;64295;44.772;39.872;2023-12-20T04:04:12;1.00;;;0.75;;
75682;SDS011;64295;44.772;39.872;2023-12-20T04:06:38;0.40;;;0.40;;
75682;SDS011;64295;44.772;39.872;2023-12-20T04:09:05;1.95;;;1.85;;
75682;SDS011;64295;44.772;39.872;2023-12-20T04:11:31;1.55;;;0.80;;
75682;SDS011;64295;44.772;39.872;2023-12-20T04:13:57;1.02;;;1.02;;
75682;SDS011;64295;44.772;39.872;2023-12-20T04:16:22;0.98;;;0.93;;
75682;SDS011;64295;44.772;39.872;2023-12-20T04:18:48;1.98;;;0.85;;
75682;SDS011;64295;44.772;39.872;2023-12-20T04:21:14;0.10;;;0.10;;
75682;SDS011;64295;44.772;39.872;2023-12-20T04:23:43;2.83;;;2.22;;
75682;SDS011;64295;44.772;39.872;2023-12-20T04:26:12;1.00;;;1.00;;
75682;SDS011;64295;44.772;39.872;2023-12-20T04:28:38;0.30;;;0.30;;
75682;SDS011;64295;44.772;39.872;2023-12-20T04:31:04;7.82;;;2.47;;
75682;SDS011;64295;44.772;39.872;2023-12-20T04:33:30;0.75;;;0.73;;
75682;SDS011;64295;44.772;39.872;2023-12-20T04:35:56;0.05;;;0.05;;
75682;SDS011;64295;44.772;39.872;2023-12-20T04:38:22;3.28;;;1.30;;
75682;SDS011;64295;44.772;39.872;2023-12-20T04:40:48;0.00;;;0.00;;
75682;SDS011;64295;44.772;39.872;2023-12-20T04:43:14;2.45;;;1.25;;
75682;SDS011;64295;44.772;39.872;2023-12-20T04:45:43;0.57;;;0.32;;
75682;SDS011;64295;44.772;39.872;2023-12-20T04:48:09;0.73;;;0.73;;
75682;SDS011;64295;44.772;39.872;2023-12-20T04:50:35;0.03;;;0.03;;
75682;SDS011;64295;44.772;39.872;2023-12-20T04:53:01;0.55;;;0.55;;
75682;SDS011;64295;44.772;39.872;2023-12-20T04:55:27;0.17;;;0.13;;
75682;SDS011;64295;44.772;39.872;2023-12-20T04:57:53;0.45;;;0.40;;
75682;SDS011;64295;44.772;39.872;2023-12-20T05:00:20;0.98;;;0.75;;
75682;SDS011;64295;44.772;39.872;2023-12-20T05:02:46;4.07;;;3.75;;
75682;SDS011;64295;44.772;39.872;2023-12-20T05:05:11;0.63;;;0.50;;
75682;SDS011;64295;44.772;39.872;2023-12-20T05:07:37;2.03;;;1.38;;
75682;SDS011;64295;44.772;39.872;2023-12-20T05:10:03;0.20;;;0.20;;
75682;SDS011;64295;44.772;39.872;2023-12-20T05:12:30;0.57;;;0.45;;
75682;SDS011;64295;44.772;39.872;2023-12-20T05:14:56;1.02;;;1.02;;
75682;SDS011;64295;44.772;39.872;2023-12-20T05:17:23;0.00;;;0.00;;
75682;SDS011;64295;44.772;39.872;2023-12-20T05:19:50;0.00;;;0.00;;
75682;SDS011;64295;44.772;39.872;2023-12-20T05:22:16;0.60;;;0.60;;
75682;SDS011;64295;44.772;39.872;2023-12-20T05:24:42;0.00;;;0.00;;
75682;SDS011;64295;44.772;39.872;2023-12-20T05:27:08;0.63;;;0.63;;
75682;SDS011;64295;44.772;39.872;2023-12-20T05:29:34;0.65;;;0.65;;
75682;SDS011;64295;44.772;39.872;2023-12-20T05:32:00;4.95;;;1.83;;
75682;SDS011;64295;44.772;39.872;2023-12-20T05:34:26;2.63;;;1.55;;
75682;SDS011;64295;44.772;39.872;2023-12-20T05:36:52;0.00;;;0.00;;
75682;SDS011;64295;44.772;39.872;2023-12-20T05:39:20;0.77;;;0.77;;
75682;SDS011;64295;44.772;39.872;2023-12-20T05:41:46;0.38;;;0.38;;
75682;SDS011;64295;44.772;39.872;2023-12-20T05:44:12;0.30;;;0.22;;
75682;SDS011;64295;44.772;39.872;2023-12-20T05:46:38;0.17;;;0.17;;
75682;SDS011;64295;44.772;39.872;2023-12-20T05:49:05;0.63;;;0.63;;
75682;SDS011;64295;44.772;39.872;2023-12-20T05:51:31;0.82;;;0.82;;
75682;SDS011;64295;44.772;39.872;2023-12-20T05:53:57;1.45;;;1.35;;
75682;SDS011;64295;44.772;39.872;2023-12-20T05:56:22;0.90;;;0.70;;
75682;SDS011;64295;44.772;39.872;2023-12-20T05:58:48;1.75;;;1.38;;
75682;SDS011;64295;44.772;39.872;2023-12-20T06:01:14;0.43;;;0.43;;
75682;SDS011;64295;44.772;39.872;2023-12-20T06:41:28;5.35;;;2.30;;
75682;SDS011;64295;44.772;39.872;2023-12-20T06:43:54;1.20;;;1.20;;
75682;SDS011;64295;44.772;39.872;2023-12-20T06:46:20;2.53;;;2.10;;
75682;SDS011;64295;44.772;39.872;2023-12-20T06:48:46;0.55;;;0.55;;
75682;SDS011;64295;44.772;39.872;2023-12-20T06:51:15;0.08;;;0.08;;
75682;SDS011;64295;44.772;39.872;2023-12-20T06:53:42;0.22;;;0.22;;
75682;SDS011;64295;44.772;39.872;2023-12-20T06:56:10;23.17;;;3.00;;
75682;SDS011;64295;44.772;39.872;2023-12-20T06:58:39;4.15;;;2.05;;
75682;SDS011;64295;44.772;39.872;2023-12-20T07:01:05;1.30;;;1.23;;
75682;SDS011;64295;44.772;39.872;2023-12-20T07:03:35;0.10;;;0.10;;
75682;SDS011;64295;44.772;39.872;2023-12-20T07:06:01;11.48;;;1.92;;
75682;SDS011;64295;44.772;39.872;2023-12-20T07:08:28;6.13;;;2.38;;
75682;SDS011;64295;44.772;39.872;2023-12-20T07:10:54;0.90;;;0.90;;
75682;SDS011;64295;44.772;39.872;2023-12-20T07:13:20;1.00;;;0.95;;
75682;SDS011;64295;44.772;39.872;2023-12-20T07:15:47;1.58;;;1.00;;
75682;SDS011;64295;44.772;39.872;2023-12-20T07:18:13;1.58;;;1.55;;
75682;SDS011;64295;44.772;39.872;2023-12-20T07:20:39;0.20;;;0.20;;
75682;SDS011;64295;44.772;39.872;2023-12-20T07:23:05;0.45;;;0.45;;
75682;SDS011;64295;44.772;39.872;2023-12-20T07:25:31;0.75;;;0.75;;
75682;SDS011;64295;44.772;39.872;2023-12-20T07:27:58;0.88;;;0.70;;
75682;SDS011;64295;44.772;39.872;2023-12-20T07:30:24;0.70;;;0.52;;
75682;SDS011;64295;44.772;39.872;2023-12-20T07:32:50;0.40;;;0.40;;
75682;SDS011;64295;44.772;39.872;2023-12-20T07:35:16;0.90;;;0.90;;
75682;SDS011;64295;44.772;39.872;2023-12-20T07:37:42;3.33;;;1.00;;
75682;SDS011;64295;44.772;39.872;2023-12-20T07:40:08;6.55;;;2.35;;
75682;SDS011;64295;44.772;39.872;2023-12-20T07:42:34;2.17;;;1.98;;
75682;SDS011;64295;44.772;39.872;2023-12-20T07:45:00;0.45;;;0.45;;
75682;SDS011;64295;44.772;39.872;2023-12-20T07:47:25;0.40;;;0.40;;
75682;SDS011;64295;44.772;39.872;2023-12-20T07:49:51;0.00;;;0.00;;
75682;SDS011;64295;44.772;39.872;2023-12-20T07:52:18;0.22;;;0.22;;
75682;SDS011;64295;44.772;39.872;2023-12-20T07:54:44;4.18;;;1.38;;
75682;SDS011;64295;44.772;39.872;2023-12-20T07:57:11;2.78;;;1.10;;
75682;SDS011;64295;44.772;39.872;2023-12-20T07:59:37;0.98;;;0.60;;
75682;SDS011;64295;44.772;39.872;2023-12-20T08:02:03;0.47;;;0.47;;
75682;SDS011;64295;44.772;39.872;2023-12-20T08:04:29;0.70;;;0.55;;
75682;SDS011;64295;44.772;39.872;2023-12-20T08:06:55;0.10;;;0.10;;
75682;SDS011;64295;44.772;39.872;2023-12-20T08:09:21;2.08;;;0.80;;
75682;SDS011;64295;44.772;39.872;2023-12-20T08:11:47;0.00;;;0.00;;
75682;SDS011;64295;44.772;39.872;2023-12-20T08:14:14;0.20;;;0.15;;
75682;SDS011;64295;44.772;39.872;2023-12-20T08:16:40;1.77;;;1.60;;
75682;SDS011;64295;44.772;39.872;2023-12-20T08:19:06;1.80;;;1.25;;
75682;SDS011;64295;44.772;39.872;2023-12-20T08:21:32;3.47;;;1.48;;
75682;SDS011;64295;44.772;39.872;2023-12-20T08:23:58;1.13;;;0.75;;
75682;SDS011;64295;44.772;39.872;2023-12-20T08:26:26;1.48;;;1.33;;
75682;SDS011;64295;44.772;39.872;2023-12-20T08:28:51;4.85;;;1.77;;
75682;SDS011;64295;44.772;39.872;2023-12-20T08:31:18;0.77;;;0.50;;
75682;SDS011;64295;44.772;39.872;2023-12-20T08:33:44;0.75;;;0.75;;
75682;SDS011;64295;44.772;39.872;2023-12-20T08:36:11;1.38;;;1.33;;
75682;SDS011;64295;44.772;39.872;2023-12-20T08:38:38;1.10;;;1.00;;
75682;SDS011;64295;44.772;39.872;2023-12-20T08:41:04;1.48;;;0.98;;
75682;SDS011;64295;44.772;39.872;2023-12-20T08:43:35;0.00;;;0.00;;
75682;SDS011;64295;44.772;39.872;2023-12-20T08:46:01;0.30;;;0.25;;
75682;SDS011;64295;44.772;39.872;2023-12-20T08:48:28;0.10;;;0.10;;
75682;SDS011;64295;44.772;39.872;2023-12-20T08:50:54;0.10;;;0.10;;
75682;SDS011;64295;44.772;39.872;2023-12-20T08:53:20;3.08;;;0.10;;
75682;SDS011;64295;44.772;39.872;2023-12-20T08:55:46;0.50;;;0.50;;
75682;SDS011;64295;44.772;39.872;2023-12-20T08:58:13;0.35;;;0.25;;
75682;SDS011;64295;44.772;39.872;2023-12-20T09:00:39;0.57;;;0.47;;
75682;SDS011;64295;44.772;39.872;2023-12-20T09:03:05;0.08;;;0.08;;
75682;SDS011;64295;44.772;39.872;2023-12-20T09:05:31;0.00;;;0.00;;
75682;SDS011;64295;44.772;39.872;2023-12-20T09:07:57;0.47;;;0.47;;
75682;SDS011;64295;44.772;39.872;2023-12-20T09:10:23;1.17;;;0.77;;
75682;SDS011;64295;44.772;39.872;2023-12-20T09:12:50;0.20;;;0.20;;
75682;SDS011;64295;44.772;39.872;2023-12-20T09:15:16;0.85;;;0.85;;
75682;SDS011;64295;44.772;39.872;2023-12-20T09:17:42;0.50;;;0.50;;
75682;SDS011;64295;44.772;39.872;2023-12-20T09:20:09;0.20;;;0.20;;
75682;SDS011;64295;44.772;39.872;2023-12-20T09:22:35;1.25;;;0.40;;
75682;SDS011;64295;44.772;39.872;2023-12-20T09:25:04;0.10;;;0.03;;
75682;SDS011;64295;44.772;39.872;2023-12-20T09:27:30;0.38;;;0.25;;
75682;SDS011;64295;44.772;39.872;2023-12-20T09:29:56;0.25;;;0.10;;
75682;SDS011;64295;44.772;39.872;2023-12-20T09:32:22;0.20;;;0.20;;
75682;SDS011;64295;44.772;39.872;2023-12-20T09:34:48;0.00;;;0.00;;
75682;SDS011;64295;44.772;39.872;2023-12-20T09:37:14;1.45;;;0.20;;
75682;SDS011;64295;44.772;39.872;2023-12-20T09:39:40;0.50;;;0.40;;
75682;SDS011;64295;44.772;39.872;2023-12-20T09:42:06;0.30;;;0.30;;
75682;SDS011;64295;44.772;39.872;2023-12-20T09:44:33;0.20;;;0.20;;
75682;SDS011;64295;44.772;39.872;2023-12-20T09:47:03;0.47;;;0.30;;
75682;SDS011;64295;44.772;39.872;2023-12-20T09:49:29;0.68;;;0.68;;
75682;SDS011;64295;44.772;39.872;2023-12-20T09:51:56;0.20;;;0.20;;
75682;SDS011;64295;44.772;39.872;2023-12-20T09:54:23;0.88;;;0.82;;
75682;SDS011;64295;44.772;39.872;2023-12-20T09:56:49;3.60;;;0.60;;
75682;SDS011;64295;44.772;39.872;2023-12-20T09:59:15;0.15;;;0.15;;
75682;SDS011;64295;44.772;39.872;2023-12-20T10:01:41;0.13;;;0.10;;
75682;SDS011;64295;44.772;39.872;2023-12-20T10:04:09;1.25;;;1.15;;
75682;SDS011;64295;44.772;39.872;2023-12-20T10:06:41;14.85;;;0.75;;
75682;SDS011;64295;44.772;39.872;2023-12-20T10:09:07;0.30;;;0.30;;
75682;SDS011;64295;44.772;39.872;2023-12-20T10:11:38;1.60;;;0.28;;
75682;SDS011;64295;44.772;39.872;2023-12-20T10:14:05;0.20;;;0.20;;
75682;SDS011;64295;44.772;39.872;2023-12-20T10:16:32;0.95;;;0.10;;
75682;SDS011;64295;44.772;39.872;2023-12-20T10:18:59;0.10;;;0.10;;
75682;SDS011;64295;44.772;39.872;2023-12-20T10:21:29;0.32;;;0.17;;
75682;SDS011;64295;44.772;39.872;2023-12-20T10:23:56;3.38;;;0.57;;
75682;SDS011;64295;44.772;39.872;2023-12-20T10:26:23;1.52;;;1.20;;
75682;SDS011;64295;44.772;39.872;2023-12-20T10:28:54;0.85;;;0.20;;
75682;SDS011;64295;44.772;39.872;2023-12-20T10:31:28;1.55;;;0.20;;
75682;SDS011;64295;44.772;39.872;2023-12-20T10:33:58;0.70;;;0.68;;
75682;SDS011;64295;44.772;39.872;2023-12-20T10:36:26;5.18;;;1.27;;
75682;SDS011;64295;44.772;39.872;2023-12-20T10:38:53;0.47;;;0.47;;
75682;SDS011;64295;44.772;39.872;2023-12-20T10:41:24;0.30;;;0.30;;
75682;SDS011;64295;44.772;39.872;2023-12-20T10:44:02;0.43;;;0.43;;
75682;SDS011;64295;44.772;39.872;2023-12-20T10:46:32;0.03;;;0.03;;
75682;SDS011;64295;44.772;39.872;2023-12-20T10:49:01;0.30;;;0.30;;
75682;SDS011;64295;44.772;39.872;2023-12-20T10:51:29;0.20;;;0.20;;
75682;SDS011;64295;44.772;39.872;2023-12-20T10:53:56;0.00;;;0.00;;
75682;SDS011;64295;44.772;39.872;2023-12-20T10:56:22;0.00;;;0.00;;
75682;SDS011;64295;44.772;39.872;2023-12-20T10:58:49;0.10;;;0.10;;
75682;SDS011;64295;44.772;39.872;2023-12-20T11:01:18;0.20;;;0.20;;
75682;SDS011;64295;44.772;39.872;2023-12-20T11:03:49;0.82;;;0.82;;
75682;SDS011;64295;44.772;39.872;2023-12-20T11:08:54;0.30;;;0.30;;
75682;SDS011;64295;44.772;39.872;2023-12-20T11:14:51;0.43;;;0.30;;
75682;SDS011;64295;44.772;39.872;2023-12-20T11:17:22;0.32;;;0.32;;
75682;SDS011;64295;44.772;39.872;2023-12-20T11:22:21;0.10;;;0.10;;
75682;SDS011;64295;44.772;39.872;2023-12-20T11:24:48;0.00;;;0.00;;
75682;SDS011;64295;44.772;39.872;2023-12-20T11:27:15;0.00;;;0.00;;
75682;SDS011;64295;44.772;39.872;2023-12-20T11:29:41;0.10;;;0.10;;
75682;SDS011;64295;44.772;39.872;2023-12-20T11:34:55;0.00;;;0.00;;
75682;SDS011;64295;44.772;39.872;2023-12-20T11:37:35;0.00;;;0.00;;
75682;SDS011;64295;44.772;39.872;2023-12-20T11:40:22;0.40;;;0.40;;
75682;SDS011;64295;44.772;39.872;2023-12-20T11:42:49;0.28;;;0.22;;
75682;SDS011;64295;44.772;39.872;2023-12-20T11:45:16;0.00;;;0.00;;
75682;SDS011;64295;44.772;39.872;2023-12-20T11:47:47;0.60;;;0.35;;
75682;SDS011;64295;44.772;39.872;2023-12-20T11:50:16;0.32;;;0.32;;
75682;SDS011;64295;44.772;39.872;2023-12-20T11:52:42;0.00;;;0.00;;
75682;SDS011;64295;44.772;39.872;2023-12-20T11:55:08;0.35;;;0.35;;
75682;SDS011;64295;44.772;39.872;2023-12-20T11:57:35;1.30;;;0.63;;
75682;SDS011;64295;44.772;39.872;2023-12-20T12:00:02;0.13;;;0.10;;
75682;SDS011;64295;44.772;39.872;2023-12-20T12:02:37;11.20;;;1.08;;
75682;SDS011;64295;44.772;39.872;2023-12-20T12:05:03;0.85;;;0.60;;
75682;SDS011;64295;44.772;39.872;2023-12-20T12:07:31;9.52;;;8.57;;
75682;SDS011;64295;44.772;39.872;2023-12-20T12:09:57;31.10;;;21.35;;
75682;SDS011;64295;44.772;39.872;2023-12-20T12:12:23;103.30;;;45.47;;
75682;SDS011;64295;44.772;39.872;2023-12-20T12:14:52;15.13;;;11.73;;
75682;SDS011;64295;44.772;39.872;2023-12-20T12:17:19;16.98;;;13.23;;
75682;SDS011;64295;44.772;39.872;2023-12-20T12:19:45;6.40;;;5.78;;
75682;SDS011;64295;44.772;39.872;2023-12-20T12:22:14;34.58;;;19.55;;
75682;SDS011;64295;44.772;39.872;2023-12-20T12:24:45;49.50;;;36.50;;
75682;SDS011;64295;44.772;39.872;2023-12-20T12:27:15;14.25;;;11.48;;
75682;SDS011;64295;44.772;39.872;2023-12-20T12:29:43;52.15;;;29.20;;
75682;SDS011;64295;44.772;39.872;2023-12-20T12:32:29;39.03;;;21.35;;
75682;SDS011;64295;44.772;39.872;2023-12-20T12:34:55;24.13;;;16.10;;
75682;SDS011;64295;44.772;39.872;2023-12-20T12:37:22;43.03;;;28.88;;
75682;SDS011;64295;44.772;39.872;2023-12-20T12:39:49;40.13;;;29.40;;
75682;SDS011;64295;44.772;39.872;2023-12-20T12:42:15;40.92;;;27.50;;
75682;SDS011;64295;44.772;39.872;2023-12-20T12:44:41;23.17;;;19.48;;
75682;SDS011;64295;44.772;39.872;2023-12-20T12:47:07;49.20;;;27.10;;
75682;SDS011;64295;44.772;39.872;2023-12-20T12:49:33;109.63;;;50.88;;
75682;SDS011;64295;44.772;39.872;2023-12-20T12:51:59;43.63;;;27.15;;
75682;SDS011;64295;44.772;39.872;2023-12-20T12:54:25;43.35;;;26.77;;
75682;SDS011;64295;44.772;39.872;2023-12-20T12:56:51;121.05;;;54.90;;
75682;SDS011;64295;44.772;39.872;2023-12-20T12:59:18;55.20;;;37.75;;
75682;SDS011;64295;44.772;39.872;2023-12-20T13:01:44;48.33;;;29.30;;
75682;SDS011;64295;44.772;39.872;2023-12-20T13:04:10;29.35;;;15.77;;
75682;SDS011;64295;44.772;39.872;2023-12-20T13:06:36;41.75;;;20.38;;
75682;SDS011;64295;44.772;39.872;2023-12-20T13:09:03;59.47;;;29.63;;
75682;SDS011;64295;44.772;39.872;2023-12-20T13:11:30;56.13;;;33.70;;
75682;SDS011;64295;44.772;39.872;2023-12-20T13:13:59;41.42;;;25.90;;
75682;SDS011;64295;44.772;39.872;2023-12-20T13:16:25;7.03;;;5.25;;
75682;SDS011;64295;44.772;39.872;2023-12-20T13:18:51;24.35;;;12.18;;
75682;SDS011;64295;44.772;39.872;2023-12-20T13:21:17;8.35;;;3.08;;
75682;SDS011;64295;44.772;39.872;2023-12-20T13:23:43;3.05;;;2.85;;
75682;SDS011;64295;44.772;39.872;2023-12-20T13:26:09;1.73;;;1.63;;
75682;SDS011;64295;44.772;39.872;2023-12-20T13:28:35;2.78;;;2.58;;
75682;SDS011;64295;44.772;39.872;2023-12-20T13:31:01;0.85;;;0.85;;
75682;SDS011;64295;44.772;39.872;2023-12-20T13:33:27;2.38;;;1.35;;
75682;SDS011;64295;44.772;39.872;2023-12-20T13:35:53;0.52;;;0.25;;
75682;SDS011;64295;44.772;39.872;2023-12-20T13:38:18;5.70;;;2.55;;
75682;SDS011;64295;44.772;39.872;2023-12-20T13:40:44;4.40;;;1.08;;
75682;SDS011;64295;44.772;39.872;2023-12-20T13:43:10;3.47;;;0.70;;
75682;SDS011;64295;44.772;39.872;2023-12-20T13:45:38;1.58;;;0.82;;
75682;SDS011;64295;44.772;39.872;2023-12-20T13:48:04;2.42;;;1.20;;
75682;SDS011;64295;44.772;39.872;2023-12-20T13:50:30;5.88;;;2.97;;
75682;SDS011;64295;44.772;39.872;2023-12-20T13:52:56;1.33;;;0.90;;
75682;SDS011;64295;44.772;39.872;2023-12-20T13:55:22;3.92;;;2.30;;
75682;SDS011;64295;44.772;39.872;2023-12-20T13:57:50;0.65;;;0.65;;
75682;SDS011;64295;44.772;39.872;2023-12-20T14:00:16;2.97;;;1.55;;
75682;SDS011;64295;44.772;39.872;2023-12-20T14:02:43;0.32;;;0.30;;
75682;SDS011;64295;44.772;39.872;2023-12-20T14:05:09;0.80;;;0.80;;
75682;SDS011;64295;44.772;39.872;2023-12-20T14:07:35;1.48;;;1.10;;
75682;SDS011;64295;44.772;39.872;2023-12-20T14:10:02;0.10;;;0.10;;
75682;SDS011;64295;44.772;39.872;2023-12-20T14:12:28;3.72;;;1.35;;
75682;SDS011;64295;44.772;39.872;2023-12-20T14:14:55;0.30;;;0.30;;
75682;SDS011;64295;44.772;39.872;2023-12-20T14:17:21;0.57;;;0.57;;
75682;SDS011;64295;44.772;39.872;2023-12-20T14:19:47;4.47;;;1.05;;
75682;SDS011;64295;44.772;39.872;2023-12-20T14:22:13;0.25;;;0.25;;
75682;SDS011;64295;44.772;39.872;2023-12-20T14:24:42;13.20;;;2.25;;
75682;SDS011;64295;44.772;39.872;2023-12-20T14:27:08;0.88;;;0.55;;
75682;SDS011;64295;44.772;39.872;2023-12-20T14:29:34;0.70;;;0.40;;
75682;SDS011;64295;44.772;39.872;2023-12-20T14:32:01;4.22;;;2.38;;
75682;SDS011;64295;44.772;39.872;2023-12-20T14:34:28;2.97;;;1.38;;
75682;SDS011;64295;44.772;39.872;2023-12-20T14:36:55;1.23;;;1.10;;
75682;SDS011;64295;44.772;39.872;2023-12-20T14:39:21;0.40;;;0.40;;
75682;SDS011;64295;44.772;39.872;2023-12-20T14:41:48;0.25;;;0.25;;
75682;SDS011;64295;44.772;39.872;2023-12-20T14:44:14;0.40;;;0.40;;
75682;SDS011;64295;44.772;39.872;2023-12-20T14:46:40;0.77;;;0.77;;
75682;SDS011;64295;44.772;39.872;2023-12-20T14:49:06;0.70;;;0.47;;
75682;SDS011;64295;44.772;39.872;2023-12-20T14:51:32;3.53;;;2.25;;
75682;SDS011;64295;44.772;39.872;2023-12-20T14:53:58;3.60;;;2.30;;
75682;SDS011;64295;44.772;39.872;2023-12-20T14:56:24;2.63;;;1.77;;
75682;SDS011;64295;44.772;39.872;2023-12-20T14:58:51;4.18;;;3.78;;
75682;SDS011;64295;44.772;39.872;2023-12-20T15:01:18;1.70;;;1.55;;
75682;SDS011;64295;44.772;39.872;2023-12-20T15:03:47;2.20;;;2.10;;
75682;SDS011;64295;44.772;39.872;2023-12-20T15:06:13;5.13;;;2.20;;
75682;SDS011;64295;44.772;39.872;2023-12-20T15:08:39;1.48;;;1.42;;
75682;SDS011;64295;44.772;39.872;2023-12-20T15:11:05;3.53;;;2.70;;
75682;SDS011;64295;44.772;39.872;2023-12-20T15:13:31;4.07;;;3.78;;
75682;SDS011;64295;44.772;39.872;2023-12-20T15:15:58;3.72;;;2.38;;
75682;SDS011;64295;44.772;39.872;2023-12-20T15:18:24;2.60;;;2.40;;
75682;SDS011;64295;44.772;39.872;2023-12-20T15:20:50;3.00;;;1.83;;
75682;SDS011;64295;44.772;39.872;2023-12-20T15:23:16;0.88;;;0.85;;
75682;SDS011;64295;44.772;39.872;2023-12-20T15:25:42;5.40;;;3.40;;